createdAt,value
2023-03-06T00:01:38.143Z,99607.89
2023-03-06T00:04:10.952Z,99603.42
2023-03-06T00:06:44.967Z,99608.44
2023-03-06T00:09:18.323Z,99611.16
2023-03-06T00:11:51.176Z,99604.63
2023-03-06T00:14:24.901Z,99593.89
2023-03-06T00:16:58.798Z,99592.26
2023-03-06T00:19:32.191Z,99602.80
2023-03-06T00:22:05.477Z,99582.40
2023-03-06T00:24:39.646Z,99586.17
2023-03-06T00:27:13.861Z,99586.61
2023-03-06T00:29:49.727Z,99581.13
2023-03-06T00:32:23.798Z,99572.73
2023-03-06T00:34:58.493Z,99583.25
2023-03-06T00:37:32.305Z,99585.48
2023-03-06T00:40:08.452Z,99580.25
2023-03-06T00:42:42.812Z,99564.50
2023-03-06T00:45:16.610Z,99560.09
2023-03-06T00:47:51.580Z,99570.30
2023-03-06T00:50:24.818Z,99570.28
2023-03-06T00:52:58.354Z,99571.30
2023-03-06T00:55:31.721Z,99563.98
2023-03-06T00:58:04.669Z,99547.48
2023-03-06T01:00:37.462Z,99555.45
2023-03-06T01:03:10.663Z,99553.46
2023-03-06T01:05:43.527Z,99571.58
2023-03-06T01:08:16.692Z,99572.46
2023-03-06T01:10:49.505Z,99574.73
2023-03-06T01:13:22.579Z,99560.02
2023-03-06T01:15:57.975Z,99573.69
2023-03-06T01:18:31.018Z,99569.52
2023-03-06T01:21:03.896Z,99575.23
2023-03-06T01:23:37.129Z,99583.56
2023-03-06T01:26:10.555Z,99577.91
2023-03-06T01:28:43.410Z,99565.27
2023-03-06T01:31:16.114Z,99575.01
2023-03-06T01:33:48.755Z,99576.70
2023-03-06T01:36:21.781Z,99579.41
2023-03-06T01:38:54.866Z,99580.57
2023-03-06T01:41:27.999Z,99575.72
2023-03-06T01:44:01.212Z,99585.42
2023-03-06T01:46:44.596Z,99584.16
2023-03-06T01:49:33.948Z,99584.64
2023-03-06T01:52:18.988Z,99584.46
2023-03-06T01:54:59.909Z,99587.84
2023-03-06T01:57:39.651Z,99578.31
2023-03-06T02:00:16.512Z,99580.00
2023-03-06T02:02:59.177Z,99576.80
2023-03-06T02:05:32.629Z,99581.66
2023-03-06T02:08:07.807Z,99597.84
2023-03-06T02:10:42.756Z,99589.15
2023-03-06T02:13:15.531Z,99573.46
2023-03-06T02:15:48.665Z,99579.58
2023-03-06T02:18:22.027Z,99594.80
2023-03-06T02:20:59.695Z,99597.39
2023-03-06T02:24:14.385Z,99599.21
2023-03-06T02:26:48.806Z,99599.80
2023-03-06T02:29:27.449Z,99602.59
2023-03-06T02:32:01.872Z,99606.07
2023-03-06T02:34:52.297Z,99593.58
2023-03-06T02:37:26.375Z,99608.94
2023-03-06T02:40:20.305Z,99603.12
2023-03-06T02:43:00.109Z,99574.55
2023-03-06T02:45:41.351Z,99609.35
2023-03-06T02:48:15.459Z,99610.44
2023-03-06T02:50:49.267Z,99610.12
2023-03-06T02:53:23.250Z,99613.66
2023-03-06T02:55:56.548Z,99612.98
2023-03-06T02:58:29.635Z,99614.66
2023-03-06T03:01:03.009Z,99615.64
2023-03-06T03:03:36.020Z,99609.38
2023-03-06T03:06:11.608Z,99610.23
2023-03-06T03:08:44.958Z,99611.77
2023-03-06T03:11:18.167Z,99602.58
2023-03-06T03:13:51.236Z,99606.68
2023-03-06T03:16:30.053Z,99606.44
2023-03-06T03:19:03.908Z,99592.97
2023-03-06T03:21:37.280Z,99620.02
2023-03-06T03:24:10.885Z,99621.05
2023-03-06T03:26:44.557Z,99621.95
2023-03-06T03:29:20.255Z,99610.98
2023-03-06T03:31:53.096Z,99612.04
2023-03-06T03:34:25.999Z,99626.52
2023-03-06T03:36:59.225Z,99624.60
2023-03-06T03:39:32.339Z,99624.65
2023-03-06T03:42:05.324Z,99625.80
2023-03-06T03:44:38.641Z,99626.96
2023-03-06T03:47:11.563Z,99622.30
2023-03-06T03:49:44.467Z,99615.73
2023-03-06T03:52:17.738Z,99614.42
2023-03-06T03:54:51.022Z,99620.88
2023-03-06T03:57:23.769Z,99605.76
2023-03-06T03:59:57.873Z,99619.80
2023-03-06T04:02:48.726Z,99615.15
2023-03-06T04:05:35.365Z,99614.30
2023-03-06T04:08:09.371Z,99611.88
2023-03-06T04:10:43.993Z,99614.68
2023-03-06T04:13:18.609Z,99615.01
2023-03-06T04:15:53.339Z,99615.27
2023-03-06T04:18:26.594Z,99613.09
2023-03-06T04:21:01.250Z,99613.36
2023-03-06T04:23:34.035Z,99615.34
2023-03-06T04:26:07.518Z,99617.13
2023-03-06T04:28:40.112Z,99602.63
2023-03-06T04:31:14.987Z,99614.98
2023-03-06T04:33:48.502Z,99615.42
2023-03-06T04:36:39.553Z,99615.45
2023-03-06T04:39:16.628Z,99613.98
2023-03-06T04:41:50.178Z,99605.48
2023-03-06T04:44:23.100Z,99586.52
2023-03-06T04:46:55.784Z,99624.20
2023-03-06T04:49:28.720Z,99622.96
2023-03-06T04:52:01.281Z,99616.14
2023-03-06T04:54:34.344Z,99591.02
2023-03-06T04:57:07.248Z,99631.09
2023-03-06T04:59:40.097Z,99635.23
2023-03-06T05:02:13.127Z,99621.09
2023-03-06T05:04:46.197Z,99625.84
2023-03-06T05:07:18.986Z,99613.06
2023-03-06T05:09:51.784Z,99639.81
2023-03-06T05:12:24.343Z,99642.41
2023-03-06T05:14:57.182Z,99623.44
2023-03-06T05:17:30.326Z,99643.95
2023-03-06T05:20:03.343Z,99646.20
2023-03-06T05:22:37.236Z,99646.52
2023-03-06T05:25:11.031Z,99634.39
2023-03-06T05:27:44.450Z,99622.69
2023-03-06T05:30:19.210Z,99629.64
2023-03-06T05:32:53.121Z,99656.55
2023-03-06T05:35:26.588Z,99662.96
2023-03-06T05:37:59.777Z,99661.27
2023-03-06T05:40:32.910Z,99670.80
2023-03-06T05:43:07.089Z,99673.73
2023-03-06T05:45:41.842Z,99673.54
2023-03-06T05:48:15.911Z,99677.13
2023-03-06T05:50:58.536Z,99684.02
2023-03-06T05:53:32.041Z,99674.89
2023-03-06T05:56:07.481Z,99681.69
2023-03-06T05:58:41.457Z,99688.90
2023-03-06T06:01:17.145Z,99695.10
2023-03-06T06:03:50.712Z,99686.20
2023-03-06T06:06:24.066Z,99699.23
2023-03-06T06:08:57.088Z,99701.77
2023-03-06T06:11:30.014Z,99697.48
2023-03-06T06:14:03.225Z,99700.83
2023-03-06T06:16:36.361Z,99705.27
2023-03-06T06:19:11.897Z,99705.17
2023-03-06T06:21:45.492Z,99702.45
2023-03-06T06:24:20.795Z,99699.36
2023-03-06T06:26:55.716Z,99687.50
2023-03-06T06:29:30.537Z,99697.45
2023-03-06T06:32:10.623Z,99700.30
2023-03-06T06:34:44.042Z,99700.39
2023-03-06T06:37:17.428Z,99702.95
2023-03-06T06:39:52.429Z,99708.73
2023-03-06T06:42:35.087Z,99712.83
2023-03-06T06:45:15.706Z,99705.95
2023-03-06T06:47:50.970Z,99706.40
2023-03-06T06:50:24.174Z,99713.42
2023-03-06T06:52:58.911Z,99718.52
2023-03-06T06:55:31.915Z,99722.63
2023-03-06T06:58:06.154Z,99722.73
2023-03-06T07:00:40.592Z,99717.41
2023-03-06T07:03:16.646Z,99725.96
2023-03-06T07:05:58.376Z,99729.39
2023-03-06T07:08:33.781Z,99732.17
2023-03-06T07:11:16.442Z,99729.02
2023-03-06T07:13:50.945Z,99726.18
2023-03-06T07:16:25.133Z,99717.24
2023-03-06T07:18:58.474Z,99724.21
2023-03-06T07:21:32.054Z,99728.30
2023-03-06T07:24:05.223Z,99730.73
2023-03-06T07:26:39.295Z,99734.50
2023-03-06T07:29:13.657Z,99733.66
2023-03-06T07:31:47.601Z,99727.94
2023-03-06T07:34:21.755Z,99727.61
2023-03-06T07:36:55.112Z,99730.23
2023-03-06T07:39:28.754Z,99735.20
2023-03-06T07:42:02.200Z,99734.48
2023-03-06T07:44:39.304Z,99732.76
2023-03-06T07:47:14.354Z,99735.81
2023-03-06T07:49:47.892Z,99734.23
2023-03-06T07:52:21.058Z,99724.57
2023-03-06T07:54:54.469Z,99725.30
2023-03-06T07:57:28.434Z,99733.85
2023-03-06T08:00:01.669Z,99732.59
2023-03-06T08:02:35.777Z,99722.38
2023-03-06T08:05:10.386Z,99710.63
2023-03-06T08:07:43.829Z,99721.89
2023-03-06T08:10:18.540Z,99724.52
2023-03-06T08:12:52.300Z,99737.11
2023-03-06T08:15:25.985Z,99736.88
2023-03-06T08:17:59.068Z,99738.08
2023-03-06T08:20:32.190Z,99738.52
2023-03-06T08:23:05.146Z,99729.98
2023-03-06T08:25:38.112Z,99725.89
2023-03-06T08:28:11.373Z,99734.16
2023-03-06T08:30:45.560Z,99732.86
2023-03-06T08:33:19.610Z,99721.14
2023-03-06T08:35:55.975Z,99731.41
2023-03-06T08:38:29.792Z,99731.89
2023-03-06T08:41:03.337Z,99729.80
2023-03-06T08:43:37.261Z,99730.83
2023-03-06T08:46:12.017Z,99734.33
2023-03-06T08:48:45.580Z,99735.77
2023-03-06T08:51:20.608Z,99739.51
2023-03-06T08:53:55.332Z,99734.69
2023-03-06T08:56:34.456Z,99737.02
2023-03-06T08:59:09.868Z,99734.98
2023-03-06T09:01:45.595Z,99732.33
2023-03-06T09:04:19.107Z,99729.73
2023-03-06T09:06:53.927Z,99716.73
2023-03-06T09:09:29.435Z,99727.50
2023-03-06T09:12:02.543Z,99736.64
2023-03-06T09:14:35.892Z,99739.83
2023-03-06T09:17:10.424Z,99743.64
2023-03-06T09:19:43.851Z,99742.34
2023-03-06T09:22:16.906Z,99740.87
2023-03-06T09:24:50.260Z,99733.54
2023-03-06T09:27:23.250Z,99713.39
2023-03-06T09:29:56.562Z,99728.71
2023-03-06T09:32:30.816Z,99742.58
2023-03-06T09:35:04.626Z,99743.02
2023-03-06T09:37:38.014Z,99744.09
2023-03-06T09:40:21.990Z,99736.90
2023-03-06T09:42:55.329Z,99745.73
2023-03-06T09:45:28.630Z,99735.55
2023-03-06T09:48:14.199Z,99733.51
2023-03-06T09:51:11.325Z,99728.63
2023-03-06T09:53:57.353Z,99735.79
2023-03-06T09:56:35.412Z,99744.58
2023-03-06T09:59:18.075Z,99713.81
2023-03-06T10:02:17.152Z,99732.42
2023-03-06T10:04:59.917Z,99739.83
2023-03-06T10:08:04.538Z,99736.52
2023-03-06T10:11:04.958Z,99728.80
2023-03-06T10:14:14.179Z,99731.41
2023-03-06T10:16:47.495Z,99718.20
2023-03-06T10:19:22.759Z,99700.31
2023-03-06T10:22:23.251Z,99707.30
2023-03-06T10:25:26.343Z,99708.70
2023-03-06T10:28:10.561Z,99716.88
2023-03-06T10:31:04.025Z,99710.88
2023-03-06T10:33:51.368Z,99717.66
2023-03-06T10:36:30.233Z,99709.66
2023-03-06T10:39:06.805Z,99716.52
2023-03-06T10:41:40.576Z,99707.91
2023-03-06T10:44:15.920Z,99694.08
2023-03-06T10:46:52.187Z,99699.98
2023-03-06T10:49:42.898Z,99707.36
2023-03-06T10:52:19.121Z,99704.26
2023-03-06T10:54:52.361Z,99702.48
2023-03-06T10:57:33.193Z,99705.02
2023-03-06T11:00:25.806Z,99693.90
2023-03-06T11:03:24.412Z,99701.16
2023-03-06T11:06:03.171Z,99702.30
2023-03-06T11:08:37.844Z,99702.17
2023-03-06T11:11:36.867Z,99686.95
2023-03-06T11:14:24.582Z,99685.23
2023-03-06T11:16:59.216Z,99696.86
2023-03-06T11:19:33.473Z,99695.20
2023-03-06T11:22:20.385Z,99692.73
2023-03-06T11:24:57.020Z,99693.33
2023-03-06T11:27:35.342Z,99679.20
2023-03-06T11:30:27.546Z,99687.23
2023-03-06T11:33:13.576Z,99683.83
2023-03-06T11:36:10.487Z,99681.48
2023-03-06T11:39:02.189Z,99673.37
2023-03-06T11:41:51.221Z,99661.83
2023-03-06T11:44:52.853Z,99679.55
2023-03-06T11:47:38.363Z,99677.64
2023-03-06T11:50:11.204Z,99677.98
2023-03-06T11:52:54.025Z,99677.27
2023-03-06T11:55:52.184Z,99677.58
2023-03-06T11:58:40.906Z,99681.23
2023-03-06T12:01:40.965Z,99676.70
2023-03-06T12:04:48.557Z,99662.95
2023-03-06T12:07:35.588Z,99658.61
2023-03-06T12:10:33.092Z,99674.00
2023-03-06T12:13:30.747Z,99677.70
2023-03-06T12:16:26.880Z,99675.57
2023-03-06T12:19:15.873Z,99676.64
2023-03-06T12:22:19.154Z,99677.23
2023-03-06T12:25:31.582Z,99674.80
2023-03-06T12:28:25.046Z,99674.29
2023-03-06T12:31:09.797Z,99671.61
2023-03-06T12:34:02.900Z,99661.38
2023-03-06T12:36:54.951Z,99665.61
2023-03-06T12:39:46.791Z,99665.23
2023-03-06T12:42:36.779Z,99660.79
2023-03-06T12:45:33.158Z,99656.61
2023-03-06T12:48:21.637Z,99655.10
2023-03-06T12:50:55.700Z,99642.52
2023-03-06T12:53:36.384Z,99650.94
2023-03-06T12:56:10.091Z,99637.20
2023-03-06T12:59:03.173Z,99651.37
2023-03-06T13:02:00.590Z,99639.25
2023-03-06T13:04:38.924Z,99648.53
2023-03-06T13:07:32.974Z,99652.95
2023-03-06T13:10:16.406Z,99654.98
2023-03-06T13:13:02.745Z,99657.54
2023-03-06T13:15:47.030Z,99655.30
2023-03-06T13:18:25.982Z,99659.04
2023-03-06T13:21:01.246Z,99666.02
2023-03-06T13:23:37.811Z,99660.15
2023-03-06T13:26:34.604Z,99657.30
2023-03-06T13:29:39.349Z,99658.23
2023-03-06T13:32:31.300Z,99645.20
2023-03-06T13:35:05.052Z,99651.88
2023-03-06T13:37:51.069Z,99649.60
2023-03-06T13:40:36.866Z,99626.55
2023-03-06T13:43:12.473Z,99655.04
2023-03-06T13:45:48.361Z,99652.22
2023-03-06T13:48:44.662Z,99650.09
2023-03-06T13:51:30.512Z,99646.89
2023-03-06T13:54:26.789Z,99645.96
2023-03-06T13:57:26.801Z,99641.52
2023-03-06T14:00:17.361Z,99651.53
2023-03-06T14:03:10.421Z,99651.41
2023-03-06T14:05:53.994Z,99641.85
2023-03-06T14:08:42.400Z,99630.84
2023-03-06T14:11:23.208Z,99656.38
2023-03-06T14:13:59.371Z,99655.63
2023-03-06T14:16:49.320Z,99656.23
2023-03-06T14:19:26.348Z,99659.91
2023-03-06T14:22:02.066Z,99646.44
2023-03-06T14:24:43.417Z,99639.69
2023-03-06T14:27:25.051Z,99658.73
2023-03-06T14:30:09.904Z,99663.39
2023-03-06T14:32:44.615Z,99663.34
2023-03-06T14:35:31.191Z,99662.82
2023-03-06T14:38:08.865Z,99666.88
2023-03-06T14:40:46.972Z,99655.18
2023-03-06T14:43:23.700Z,99670.46
2023-03-06T14:46:07.835Z,99655.31
2023-03-06T14:48:47.483Z,99664.25
2023-03-06T14:51:26.064Z,99666.61
2023-03-06T14:54:04.202Z,99677.52
2023-03-06T14:56:43.708Z,99667.72
2023-03-06T14:59:21.999Z,99681.38
2023-03-06T15:02:04.787Z,99682.27
2023-03-06T15:05:15.392Z,99672.32
2023-03-06T15:07:48.875Z,99678.70
2023-03-06T15:10:30.641Z,99679.16
2023-03-06T15:13:26.472Z,99680.77
2023-03-06T15:16:25.671Z,99681.94
2023-03-06T15:19:01.693Z,99678.48
2023-03-06T15:21:42.157Z,99676.11
2023-03-06T15:24:37.613Z,99672.50
2023-03-06T15:27:27.197Z,99667.36
2023-03-06T15:30:30.674Z,99662.84
2023-03-06T15:33:33.079Z,99676.04
2023-03-06T15:36:08.256Z,99674.13
2023-03-06T15:38:43.891Z,99672.69
2023-03-06T15:41:38.552Z,99672.71
2023-03-06T15:44:15.704Z,99675.47
2023-03-06T15:46:51.807Z,99677.88
2023-03-06T15:49:28.279Z,99678.59
2023-03-06T15:52:01.805Z,99679.96
2023-03-06T15:54:35.804Z,99667.31
2023-03-06T15:57:18.357Z,99675.51
2023-03-06T15:59:52.516Z,99677.09
2023-03-06T16:02:26.994Z,99685.44
2023-03-06T16:05:03.405Z,99683.48
2023-03-06T16:07:36.934Z,99672.68
2023-03-06T16:10:15.696Z,99687.73
2023-03-06T16:12:52.697Z,99686.98
2023-03-06T16:15:33.557Z,99687.26
2023-03-06T16:18:08.232Z,99685.71
2023-03-06T16:20:42.463Z,99686.29
2023-03-06T16:23:17.115Z,99685.70
2023-03-06T16:25:51.970Z,99685.84
2023-03-06T16:28:27.687Z,99688.11
2023-03-06T16:31:01.107Z,99687.84
2023-03-06T16:33:34.229Z,99681.33
2023-03-06T16:36:19.869Z,99698.89
2023-03-06T16:38:54.073Z,99700.52
2023-03-06T16:41:28.456Z,99701.13
2023-03-06T16:44:02.292Z,99694.77
2023-03-06T16:46:35.834Z,99704.80
2023-03-06T16:49:10.248Z,99686.35
2023-03-06T16:51:43.917Z,99703.23
2023-03-06T16:54:18.537Z,99695.85
2023-03-06T16:56:51.905Z,99709.70
2023-03-06T16:59:25.867Z,99709.36
2023-03-06T17:02:00.485Z,99698.77
2023-03-06T17:04:33.591Z,99691.79
2023-03-06T17:07:07.241Z,99707.69
2023-03-06T17:09:41.315Z,99696.77
2023-03-06T17:12:15.392Z,99694.64
2023-03-06T17:14:49.167Z,99707.11
2023-03-06T17:17:22.844Z,99696.79
2023-03-06T17:19:56.697Z,99702.58
2023-03-06T17:22:31.202Z,99711.80
2023-03-06T17:25:07.438Z,99712.86
2023-03-06T17:27:40.679Z,99711.33
2023-03-06T17:30:14.320Z,99717.52
2023-03-06T17:32:48.052Z,99714.39
2023-03-06T17:35:22.179Z,99717.30
2023-03-06T17:37:56.126Z,99719.75
2023-03-06T17:40:29.539Z,99721.70
2023-03-06T17:43:03.465Z,99709.65
2023-03-06T17:45:39.035Z,99712.05
2023-03-06T17:48:12.630Z,99729.04
2023-03-06T17:50:46.454Z,99727.93
2023-03-06T17:53:20.278Z,99728.73
2023-03-06T17:55:53.748Z,99727.92
2023-03-06T17:58:27.025Z,99709.69
2023-03-06T18:01:01.721Z,99699.11
2023-03-06T18:03:38.117Z,99708.58
2023-03-06T18:06:12.656Z,99696.99
2023-03-06T18:08:46.550Z,99718.77
2023-03-06T18:11:20.149Z,99731.61
2023-03-06T18:13:53.503Z,99743.48
2023-03-06T18:16:28.886Z,99738.55
2023-03-06T18:19:02.714Z,99756.83
2023-03-06T18:21:36.210Z,99750.88
2023-03-06T18:24:11.097Z,99747.25
2023-03-06T18:26:46.392Z,99743.26
2023-03-06T18:29:19.409Z,99748.53
2023-03-06T18:31:53.747Z,99740.64
2023-03-06T18:34:26.835Z,99737.09
2023-03-06T18:36:59.941Z,99748.05
2023-03-06T18:39:32.786Z,99737.71
2023-03-06T18:42:06.299Z,99743.95
2023-03-06T18:44:40.127Z,99737.76
2023-03-06T18:47:14.287Z,99745.14
2023-03-06T18:49:48.426Z,99735.10
2023-03-06T18:52:25.932Z,99750.83
2023-03-06T18:54:59.793Z,99739.27
2023-03-06T18:57:34.090Z,99739.14
2023-03-06T19:00:08.299Z,99750.23
2023-03-06T19:02:41.904Z,99742.90
2023-03-06T19:05:15.076Z,99737.03
2023-03-06T19:07:47.920Z,99728.60
2023-03-06T19:10:22.116Z,99739.26
2023-03-06T19:12:55.776Z,99736.63
2023-03-06T19:15:28.894Z,99720.06
2023-03-06T19:18:02.936Z,99708.65
2023-03-06T19:20:36.443Z,99729.75
2023-03-06T19:23:10.324Z,99719.52
2023-03-06T19:25:44.404Z,99701.45
2023-03-06T19:28:18.522Z,99729.03
2023-03-06T19:30:51.764Z,99721.61
2023-03-06T19:33:25.101Z,99728.05
2023-03-06T19:35:58.874Z,99733.73
2023-03-06T19:38:32.093Z,99730.17
2023-03-06T19:41:04.987Z,99725.93
2023-03-06T19:43:38.318Z,99739.65
2023-03-06T19:46:15.643Z,99736.09
2023-03-06T19:48:49.273Z,99731.83
2023-03-06T19:51:22.322Z,99727.25
2023-03-06T19:53:55.670Z,99738.35
2023-03-06T19:56:32.370Z,99725.70
2023-03-06T19:59:05.425Z,99735.19
2023-03-06T20:01:39.028Z,99724.51
2023-03-06T20:04:11.881Z,99717.25
2023-03-06T20:06:47.150Z,99726.11
2023-03-06T20:09:20.798Z,99730.33
2023-03-06T20:11:53.438Z,99730.32
2023-03-06T20:14:26.688Z,99729.48
2023-03-06T20:16:59.849Z,99728.63
2023-03-06T20:19:33.213Z,99731.42
2023-03-06T20:22:06.423Z,99729.55
2023-03-06T20:24:39.583Z,99723.64
2023-03-06T20:27:12.798Z,99707.86
2023-03-06T20:29:46.314Z,99717.57
2023-03-06T20:32:19.242Z,99707.52
2023-03-06T20:34:52.443Z,99715.42
2023-03-06T20:37:25.746Z,99713.75
2023-03-06T20:39:58.868Z,99707.95
2023-03-06T20:42:31.928Z,99707.15
2023-03-06T20:45:05.404Z,99707.38
2023-03-06T20:47:38.637Z,99690.89
2023-03-06T20:50:12.297Z,99697.27
2023-03-06T20:52:48.123Z,99697.00
2023-03-06T20:55:21.680Z,99690.95
2023-03-06T20:57:58.155Z,99692.34
2023-03-06T21:00:31.113Z,99674.76
2023-03-06T21:03:04.086Z,99670.79
2023-03-06T21:05:37.667Z,99686.77
2023-03-06T21:08:11.084Z,99673.91
2023-03-06T21:10:47.281Z,99680.33
2023-03-06T21:13:20.428Z,99667.12
2023-03-06T21:15:53.251Z,99686.29
2023-03-06T21:18:26.436Z,99671.46
2023-03-06T21:20:59.309Z,99684.46
2023-03-06T21:23:33.024Z,99676.14
2023-03-06T21:26:06.735Z,99676.23
2023-03-06T21:28:40.260Z,99667.88
2023-03-06T21:31:15.480Z,99669.50
2023-03-06T21:33:49.165Z,99660.51
2023-03-06T21:36:23.254Z,99659.60
2023-03-06T21:38:56.438Z,99671.54
2023-03-06T21:41:33.198Z,99667.09
2023-03-06T21:44:07.950Z,99665.36
2023-03-06T21:46:41.259Z,99663.56
2023-03-06T21:49:14.729Z,99662.17
2023-03-06T21:51:48.496Z,99660.90
2023-03-06T21:54:21.500Z,99654.44
2023-03-06T21:56:54.779Z,99635.21
2023-03-06T21:59:27.621Z,99630.27
2023-03-06T22:02:00.769Z,99644.63
2023-03-06T22:04:34.021Z,99630.60
2023-03-06T22:07:07.157Z,99604.02
2023-03-06T22:09:39.857Z,99644.16
2023-03-06T22:12:13.254Z,99641.17
2023-03-06T22:14:49.724Z,99635.32
2023-03-06T22:17:22.910Z,99641.27
2023-03-06T22:19:55.989Z,99640.58
2023-03-06T22:22:29.792Z,99636.33
2023-03-06T22:25:02.582Z,99631.77
2023-03-06T22:27:35.372Z,99630.83
2023-03-06T22:30:08.676Z,99621.36
2023-03-06T22:32:41.536Z,99623.71
2023-03-06T22:35:14.253Z,99612.23
2023-03-06T22:37:46.971Z,99622.63
2023-03-06T22:40:19.823Z,99633.95
2023-03-06T22:42:52.702Z,99634.65
2023-03-06T22:45:25.539Z,99629.59
2023-03-06T22:48:10.051Z,99613.62
2023-03-06T22:50:46.292Z,99619.06
2023-03-06T22:53:19.290Z,99625.67
2023-03-06T22:55:52.843Z,99619.34
2023-03-06T22:58:25.718Z,99603.44
2023-03-06T23:00:58.253Z,99615.76
2023-03-06T23:03:31.288Z,99617.46
2023-03-06T23:06:06.514Z,99613.32
2023-03-06T23:08:39.528Z,99608.92
2023-03-06T23:11:14.035Z,99607.19
2023-03-06T23:14:06.941Z,99604.86
2023-03-06T23:17:00.235Z,99600.33
2023-03-06T23:19:53.655Z,99600.77
2023-03-06T23:22:48.830Z,99597.73
2023-03-06T23:25:41.602Z,99593.32
2023-03-06T23:28:14.740Z,99597.02
2023-03-06T23:30:47.789Z,99582.75
2023-03-06T23:33:20.366Z,99593.35
2023-03-06T23:35:53.300Z,99583.81
2023-03-06T23:38:25.909Z,99593.81
2023-03-06T23:40:58.684Z,99595.83
2023-03-06T23:43:31.226Z,99586.90
2023-03-06T23:46:04.546Z,99572.86
2023-03-06T23:48:40.887Z,99549.91
2023-03-06T23:51:21.750Z,99569.42
2023-03-06T23:53:59.287Z,99561.98
2023-03-06T23:56:32.186Z,99558.70
2023-03-06T23:59:05.022Z,99558.89
